sensor_id;sensor_type;location;lat;lon;timestamp;P1;durP1;ratioP1;P2;durP2;ratioP2
5428;SDS011;2737;52.386;9.980;2024-01-15T00:00:00;17.73;;;8.27;;
5428;SDS011;2737;52.386;9.980;2024-01-15T00:02:28;13.53;;;7.23;;
5428;SDS011;2737;52.386;9.980;2024-01-15T00:04:55;16.33;;;7.07;;
5428;SDS011;2737;52.386;9.980;2024-01-15T00:07:22;14.50;;;6.80;;
5428;SDS011;2737;52.386;9.980;2024-01-15T00:09:49;15.87;;;6.97;;
5428;SDS011;2737;52.386;9.980;2024-01-15T00:12:16;14.47;;;7.07;;
5428;SDS011;2737;52.386;9.980;2024-01-15T00:14:43;13.60;;;7.07;;
5428;SDS011;2737;52.386;9.980;2024-01-15T00:17:12;14.13;;;7.10;;
5428;SDS011;2737;52.386;9.980;2024-01-15T00:19:39;15.63;;;7.97;;
5428;SDS011;2737;52.386;9.980;2024-01-15T00:22:06;15.13;;;6.87;;
5428;SDS011;2737;52.386;9.980;2024-01-15T00:24:33;15.57;;;6.70;;
5428;SDS011;2737;52.386;9.980;2024-01-15T00:27:00;16.40;;;7.40;;
5428;SDS011;2737;52.386;9.980;2024-01-15T00:29:27;17.07;;;6.57;;
5428;SDS011;2737;52.386;9.980;2024-01-15T00:31:54;13.40;;;6.50;;
5428;SDS011;2737;52.386;9.980;2024-01-15T00:34:22;14.60;;;6.60;;
5428;SDS011;2737;52.386;9.980;2024-01-15T00:36:49;17.43;;;6.80;;
5428;SDS011;2737;52.386;9.980;2024-01-15T00:39:16;14.07;;;6.07;;
5428;SDS011;2737;52.386;9.980;2024-01-15T00:41:43;12.30;;;6.30;;
5428;SDS011;2737;52.386;9.980;2024-01-15T00:44:10;13.93;;;6.00;;
5428;SDS011;2737;52.386;9.980;2024-01-15T00:46:42;15.60;;;5.70;;
5428;SDS011;2737;52.386;9.980;2024-01-15T00:49:10;16.93;;;6.50;;
5428;SDS011;2737;52.386;9.980;2024-01-15T00:51:39;12.57;;;5.30;;
5428;SDS011;2737;52.386;9.980;2024-01-15T00:54:06;15.37;;;6.10;;
5428;SDS011;2737;52.386;9.980;2024-01-15T00:56:33;9.50;;;5.20;;
5428;SDS011;2737;52.386;9.980;2024-01-15T00:59:00;11.90;;;5.53;;
5428;SDS011;2737;52.386;9.980;2024-01-15T01:01:27;16.20;;;4.80;;
5428;SDS011;2737;52.386;9.980;2024-01-15T01:03:54;16.77;;;5.93;;
5428;SDS011;2737;52.386;9.980;2024-01-15T01:06:22;12.93;;;5.37;;
5428;SDS011;2737;52.386;9.980;2024-01-15T01:08:50;11.23;;;5.53;;
5428;SDS011;2737;52.386;9.980;2024-01-15T01:11:17;10.90;;;5.33;;
5428;SDS011;2737;52.386;9.980;2024-01-15T01:13:44;13.53;;;5.20;;
5428;SDS011;2737;52.386;9.980;2024-01-15T01:16:11;12.73;;;5.63;;
5428;SDS011;2737;52.386;9.980;2024-01-15T01:18:38;9.87;;;4.67;;
5428;SDS011;2737;52.386;9.980;2024-01-15T01:21:05;11.00;;;5.20;;
5428;SDS011;2737;52.386;9.980;2024-01-15T01:23:32;8.70;;;4.77;;
5428;SDS011;2737;52.386;9.980;2024-01-15T01:26:00;12.60;;;4.53;;
5428;SDS011;2737;52.386;9.980;2024-01-15T01:28:28;10.63;;;4.60;;
5428;SDS011;2737;52.386;9.980;2024-01-15T01:30:55;13.53;;;4.87;;
5428;SDS011;2737;52.386;9.980;2024-01-15T01:33:22;12.83;;;4.50;;
5428;SDS011;2737;52.386;9.980;2024-01-15T01:35:49;15.27;;;3.87;;
5428;SDS011;2737;52.386;9.980;2024-01-15T01:38:16;10.60;;;4.50;;
5428;SDS011;2737;52.386;9.980;2024-01-15T01:40:43;23.33;;;5.30;;
5428;SDS011;2737;52.386;9.980;2024-01-15T01:43:11;14.70;;;4.10;;
5428;SDS011;2737;52.386;9.980;2024-01-15T01:45:38;12.63;;;3.80;;
5428;SDS011;2737;52.386;9.980;2024-01-15T01:48:05;7.93;;;3.53;;
5428;SDS011;2737;52.386;9.980;2024-01-15T01:50:33;6.57;;;2.90;;
5428;SDS011;2737;52.386;9.980;2024-01-15T01:53:00;5.67;;;3.00;;
5428;SDS011;2737;52.386;9.980;2024-01-15T01:55:29;15.43;;;3.43;;
5428;SDS011;2737;52.386;9.980;2024-01-15T01:57:58;12.63;;;4.10;;
5428;SDS011;2737;52.386;9.980;2024-01-15T02:00:27;9.13;;;3.00;;
5428;SDS011;2737;52.386;9.980;2024-01-15T02:02:54;7.70;;;2.80;;
5428;SDS011;2737;52.386;9.980;2024-01-15T02:05:21;9.97;;;2.60;;
5428;SDS011;2737;52.386;9.980;2024-01-15T02:07:49;7.97;;;2.70;;
5428;SDS011;2737;52.386;9.980;2024-01-15T02:10:16;6.43;;;2.43;;
5428;SDS011;2737;52.386;9.980;2024-01-15T02:12:43;11.10;;;2.63;;
5428;SDS011;2737;52.386;9.980;2024-01-15T02:15:10;15.13;;;2.67;;
5428;SDS011;2737;52.386;9.980;2024-01-15T02:20:24;12.07;;;3.20;;
5428;SDS011;2737;52.386;9.980;2024-01-15T02:22:51;5.60;;;2.23;;
5428;SDS011;2737;52.386;9.980;2024-01-15T02:25:20;9.00;;;2.97;;
5428;SDS011;2737;52.386;9.980;2024-01-15T02:27:47;15.13;;;3.20;;
5428;SDS011;2737;52.386;9.980;2024-01-15T02:30:14;9.60;;;2.47;;
5428;SDS011;2737;52.386;9.980;2024-01-15T02:32:43;12.50;;;3.13;;
5428;SDS011;2737;52.386;9.980;2024-01-15T02:35:10;10.00;;;3.43;;
5428;SDS011;2737;52.386;9.980;2024-01-15T02:37:37;10.47;;;1.73;;
5428;SDS011;2737;52.386;9.980;2024-01-15T02:40:04;8.60;;;2.10;;
5428;SDS011;2737;52.386;9.980;2024-01-15T02:42:34;10.50;;;2.20;;
5428;SDS011;2737;52.386;9.980;2024-01-15T02:45:01;10.87;;;2.17;;
5428;SDS011;2737;52.386;9.980;2024-01-15T02:47:28;9.80;;;2.00;;
5428;SDS011;2737;52.386;9.980;2024-01-15T02:49:55;10.90;;;1.67;;
5428;SDS011;2737;52.386;9.980;2024-01-15T02:52:22;7.77;;;2.87;;
5428;SDS011;2737;52.386;9.980;2024-01-15T02:54:49;8.13;;;1.97;;
5428;SDS011;2737;52.386;9.980;2024-01-15T02:57:16;11.50;;;1.90;;
5428;SDS011;2737;52.386;9.980;2024-01-15T02:59:44;3.90;;;2.03;;
5428;SDS011;2737;52.386;9.980;2024-01-15T03:02:11;6.90;;;1.87;;
5428;SDS011;2737;52.386;9.980;2024-01-15T03:04:42;8.47;;;1.77;;
5428;SDS011;2737;52.386;9.980;2024-01-15T03:07:09;9.40;;;2.50;;
5428;SDS011;2737;52.386;9.980;2024-01-15T03:09:36;6.73;;;1.53;;
5428;SDS011;2737;52.386;9.980;2024-01-15T03:12:04;12.80;;;2.30;;
5428;SDS011;2737;52.386;9.980;2024-01-15T03:14:31;11.33;;;2.50;;
5428;SDS011;2737;52.386;9.980;2024-01-15T03:17:00;2.80;;;1.30;;
5428;SDS011;2737;52.386;9.980;2024-01-15T03:19:27;15.27;;;1.60;;
5428;SDS011;2737;52.386;9.980;2024-01-15T03:21:54;9.27;;;2.43;;
5428;SDS011;2737;52.386;9.980;2024-01-15T03:24:21;9.53;;;1.10;;
5428;SDS011;2737;52.386;9.980;2024-01-15T03:26:48;4.80;;;1.60;;
5428;SDS011;2737;52.386;9.980;2024-01-15T03:29:15;4.77;;;1.30;;
5428;SDS011;2737;52.386;9.980;2024-01-15T03:31:42;3.93;;;1.57;;
5428;SDS011;2737;52.386;9.980;2024-01-15T03:34:10;13.40;;;1.40;;
5428;SDS011;2737;52.386;9.980;2024-01-15T03:36:36;8.03;;;1.60;;
5428;SDS011;2737;52.386;9.980;2024-01-15T03:39:03;7.80;;;1.50;;
5428;SDS011;2737;52.386;9.980;2024-01-15T03:41:30;6.77;;;1.67;;
5428;SDS011;2737;52.386;9.980;2024-01-15T03:43:57;10.10;;;1.80;;
5428;SDS011;2737;52.386;9.980;2024-01-15T03:46:24;3.07;;;1.07;;
5428;SDS011;2737;52.386;9.980;2024-01-15T03:48:51;9.90;;;1.80;;
5428;SDS011;2737;52.386;9.980;2024-01-15T03:51:20;3.07;;;1.10;;
5428;SDS011;2737;52.386;9.980;2024-01-15T03:53:47;14.10;;;1.37;;
5428;SDS011;2737;52.386;9.980;2024-01-15T03:56:14;7.93;;;1.43;;
5428;SDS011;2737;52.386;9.980;2024-01-15T03:58:41;10.30;;;1.53;;
5428;SDS011;2737;52.386;9.980;2024-01-15T04:01:08;7.27;;;2.10;;
5428;SDS011;2737;52.386;9.980;2024-01-15T04:03:36;7.27;;;1.10;;
5428;SDS011;2737;52.386;9.980;2024-01-15T04:06:03;9.53;;;1.27;;
5428;SDS011;2737;52.386;9.980;2024-01-15T04:08:32;7.07;;;1.00;;
5428;SDS011;2737;52.386;9.980;2024-01-15T04:10:59;8.27;;;1.40;;
5428;SDS011;2737;52.386;9.980;2024-01-15T04:13:26;12.07;;;1.50;;
5428;SDS011;2737;52.386;9.980;2024-01-15T04:15:54;4.03;;;1.20;;
5428;SDS011;2737;52.386;9.980;2024-01-15T04:18:21;6.07;;;1.40;;
5428;SDS011;2737;52.386;9.980;2024-01-15T04:20:48;6.67;;;1.43;;
5428;SDS011;2737;52.386;9.980;2024-01-15T04:23:15;8.63;;;1.43;;
5428;SDS011;2737;52.386;9.980;2024-01-15T04:25:43;7.97;;;1.90;;
5428;SDS011;2737;52.386;9.980;2024-01-15T04:28:11;5.60;;;1.23;;
5428;SDS011;2737;52.386;9.980;2024-01-15T04:30:38;5.33;;;1.17;;
5428;SDS011;2737;52.386;9.980;2024-01-15T04:33:05;15.10;;;1.77;;
5428;SDS011;2737;52.386;9.980;2024-01-15T04:35:32;9.40;;;1.40;;
5428;SDS011;2737;52.386;9.980;2024-01-15T04:38:00;10.50;;;1.37;;
5428;SDS011;2737;52.386;9.980;2024-01-15T04:40:27;5.53;;;1.00;;
5428;SDS011;2737;52.386;9.980;2024-01-15T04:42:56;7.50;;;1.30;;
5428;SDS011;2737;52.386;9.980;2024-01-15T04:45:23;13.93;;;2.27;;
5428;SDS011;2737;52.386;9.980;2024-01-15T04:47:53;6.63;;;1.27;;
5428;SDS011;2737;52.386;9.980;2024-01-15T04:50:21;11.50;;;1.83;;
5428;SDS011;2737;52.386;9.980;2024-01-15T04:52:49;11.37;;;1.93;;
5428;SDS011;2737;52.386;9.980;2024-01-15T04:55:16;7.17;;;1.53;;
5428;SDS011;2737;52.386;9.980;2024-01-15T04:57:43;8.33;;;2.13;;
5428;SDS011;2737;52.386;9.980;2024-01-15T05:00:12;4.03;;;1.40;;
5428;SDS011;2737;52.386;9.980;2024-01-15T05:02:40;8.07;;;1.43;;
5428;SDS011;2737;52.386;9.980;2024-01-15T05:05:07;17.70;;;1.63;;
5428;SDS011;2737;52.386;9.980;2024-01-15T05:07:34;15.47;;;2.73;;
5428;SDS011;2737;52.386;9.980;2024-01-15T05:10:01;6.67;;;1.20;;
5428;SDS011;2737;52.386;9.980;2024-01-15T05:12:28;10.43;;;1.27;;
5428;SDS011;2737;52.386;9.980;2024-01-15T05:14:55;8.73;;;1.47;;
5428;SDS011;2737;52.386;9.980;2024-01-15T05:17:24;12.10;;;1.53;;
5428;SDS011;2737;52.386;9.980;2024-01-15T05:19:51;4.23;;;1.13;;
5428;SDS011;2737;52.386;9.980;2024-01-15T05:22:18;6.80;;;1.20;;
5428;SDS011;2737;52.386;9.980;2024-01-15T05:24:46;11.23;;;1.30;;
5428;SDS011;2737;52.386;9.980;2024-01-15T05:27:13;16.53;;;2.70;;
5428;SDS011;2737;52.386;9.980;2024-01-15T05:29:40;8.77;;;1.80;;
5428;SDS011;2737;52.386;9.980;2024-01-15T05:32:07;10.03;;;1.60;;
5428;SDS011;2737;52.386;9.980;2024-01-15T05:34:35;3.70;;;1.07;;
5428;SDS011;2737;52.386;9.980;2024-01-15T05:37:02;5.53;;;1.27;;
5428;SDS011;2737;52.386;9.980;2024-01-15T05:39:29;3.93;;;1.33;;
5428;SDS011;2737;52.386;9.980;2024-01-15T05:41:57;8.23;;;1.97;;
5428;SDS011;2737;52.386;9.980;2024-01-15T05:44:24;10.20;;;1.93;;
5428;SDS011;2737;52.386;9.980;2024-01-15T05:46:52;5.30;;;1.40;;
5428;SDS011;2737;52.386;9.980;2024-01-15T05:49:19;7.93;;;2.07;;
5428;SDS011;2737;52.386;9.980;2024-01-15T05:51:48;12.53;;;1.83;;
5428;SDS011;2737;52.386;9.980;2024-01-15T05:54:17;2.83;;;2.20;;
5428;SDS011;2737;52.386;9.980;2024-01-15T05:56:44;4.97;;;1.07;;
5428;SDS011;2737;52.386;9.980;2024-01-15T05:59:11;5.63;;;1.30;;
5428;SDS011;2737;52.386;9.980;2024-01-15T06:01:38;7.60;;;1.47;;
5428;SDS011;2737;52.386;9.980;2024-01-15T06:04:05;5.20;;;1.13;;
5428;SDS011;2737;52.386;9.980;2024-01-15T06:06:32;4.77;;;1.23;;
5428;SDS011;2737;52.386;9.980;2024-01-15T06:09:01;16.03;;;1.87;;
5428;SDS011;2737;52.386;9.980;2024-01-15T06:11:30;6.83;;;1.70;;
5428;SDS011;2737;52.386;9.980;2024-01-15T06:13:57;9.50;;;2.03;;
5428;SDS011;2737;52.386;9.980;2024-01-15T06:16:25;3.63;;;1.00;;
5428;SDS011;2737;52.386;9.980;2024-01-15T06:18:52;5.47;;;1.50;;
5428;SDS011;2737;52.386;9.980;2024-01-15T06:21:20;5.00;;;1.27;;
5428;SDS011;2737;52.386;9.980;2024-01-15T06:23:47;1.90;;;1.03;;
5428;SDS011;2737;52.386;9.980;2024-01-15T06:26:15;3.03;;;1.10;;
5428;SDS011;2737;52.386;9.980;2024-01-15T06:28:42;10.23;;;1.40;;
5428;SDS011;2737;52.386;9.980;2024-01-15T06:31:09;5.00;;;1.17;;
5428;SDS011;2737;52.386;9.980;2024-01-15T06:33:36;4.73;;;1.30;;
5428;SDS011;2737;52.386;9.980;2024-01-15T06:36:03;6.60;;;1.70;;
5428;SDS011;2737;52.386;9.980;2024-01-15T06:38:31;6.80;;;1.30;;
5428;SDS011;2737;52.386;9.980;2024-01-15T06:40:58;6.10;;;1.70;;
5428;SDS011;2737;52.386;9.980;2024-01-15T06:43:27;6.40;;;1.53;;
5428;SDS011;2737;52.386;9.980;2024-01-15T06:45:54;5.03;;;1.23;;
5428;SDS011;2737;52.386;9.980;2024-01-15T06:48:21;7.53;;;1.40;;
5428;SDS011;2737;52.386;9.980;2024-01-15T06:50:48;6.20;;;1.80;;
5428;SDS011;2737;52.386;9.980;2024-01-15T06:53:15;9.47;;;1.83;;
5428;SDS011;2737;52.386;9.980;2024-01-15T06:55:42;3.70;;;1.13;;
5428;SDS011;2737;52.386;9.980;2024-01-15T06:58:09;6.60;;;1.20;;
5428;SDS011;2737;52.386;9.980;2024-01-15T07:00:37;5.33;;;1.50;;
5428;SDS011;2737;52.386;9.980;2024-01-15T07:03:05;18.50;;;2.40;;
5428;SDS011;2737;52.386;9.980;2024-01-15T07:05:32;16.97;;;2.00;;
5428;SDS011;2737;52.386;9.980;2024-01-15T07:07:59;12.13;;;1.67;;
5428;SDS011;2737;52.386;9.980;2024-01-15T07:10:27;6.90;;;1.80;;
5428;SDS011;2737;52.386;9.980;2024-01-15T07:12:54;6.03;;;2.17;;
5428;SDS011;2737;52.386;9.980;2024-01-15T07:15:21;7.43;;;1.77;;
5428;SDS011;2737;52.386;9.980;2024-01-15T07:17:49;11.53;;;2.07;;
5428;SDS011;2737;52.386;9.980;2024-01-15T07:20:16;4.83;;;1.60;;
5428;SDS011;2737;52.386;9.980;2024-01-15T07:22:44;5.47;;;1.67;;
5428;SDS011;2737;52.386;9.980;2024-01-15T07:25:11;5.57;;;1.43;;
5428;SDS011;2737;52.386;9.980;2024-01-15T07:27:39;5.33;;;1.27;;
5428;SDS011;2737;52.386;9.980;2024-01-15T07:30:09;7.90;;;1.53;;
5428;SDS011;2737;52.386;9.980;2024-01-15T07:32:37;6.27;;;1.70;;
5428;SDS011;2737;52.386;9.980;2024-01-15T07:35:06;5.40;;;1.67;;
5428;SDS011;2737;52.386;9.980;2024-01-15T07:37:33;5.23;;;1.67;;
5428;SDS011;2737;52.386;9.980;2024-01-15T07:40:00;7.53;;;1.57;;
5428;SDS011;2737;52.386;9.980;2024-01-15T07:42:29;5.97;;;2.10;;
5428;SDS011;2737;52.386;9.980;2024-01-15T07:44:56;4.33;;;1.90;;
5428;SDS011;2737;52.386;9.980;2024-01-15T07:47:23;10.40;;;1.90;;
5428;SDS011;2737;52.386;9.980;2024-01-15T07:49:50;5.07;;;2.03;;
5428;SDS011;2737;52.386;9.980;2024-01-15T07:52:18;6.00;;;2.50;;
5428;SDS011;2737;52.386;9.980;2024-01-15T07:54:46;5.13;;;1.73;;
5428;SDS011;2737;52.386;9.980;2024-01-15T07:57:13;7.90;;;2.03;;
5428;SDS011;2737;52.386;9.980;2024-01-15T07:59:40;14.43;;;2.40;;
5428;SDS011;2737;52.386;9.980;2024-01-15T08:02:07;6.33;;;1.93;;
5428;SDS011;2737;52.386;9.980;2024-01-15T08:04:36;8.77;;;2.20;;
5428;SDS011;2737;52.386;9.980;2024-01-15T08:07:03;10.40;;;2.03;;
5428;SDS011;2737;52.386;9.980;2024-01-15T08:09:32;4.20;;;1.83;;
5428;SDS011;2737;52.386;9.980;2024-01-15T08:11:59;4.23;;;1.63;;
5428;SDS011;2737;52.386;9.980;2024-01-15T08:14:26;6.80;;;2.00;;
5428;SDS011;2737;52.386;9.980;2024-01-15T08:16:53;5.37;;;1.90;;
5428;SDS011;2737;52.386;9.980;2024-01-15T08:19:20;18.13;;;2.80;;
5428;SDS011;2737;52.386;9.980;2024-01-15T08:21:47;5.53;;;2.17;;
5428;SDS011;2737;52.386;9.980;2024-01-15T08:24:14;5.07;;;2.03;;
5428;SDS011;2737;52.386;9.980;2024-01-15T08:26:43;10.77;;;2.20;;
5428;SDS011;2737;52.386;9.980;2024-01-15T08:29:10;6.67;;;2.40;;
5428;SDS011;2737;52.386;9.980;2024-01-15T08:31:37;2.90;;;1.87;;
5428;SDS011;2737;52.386;9.980;2024-01-15T08:34:04;4.53;;;2.20;;
5428;SDS011;2737;52.386;9.980;2024-01-15T08:36:31;4.30;;;2.00;;
5428;SDS011;2737;52.386;9.980;2024-01-15T08:39:00;7.10;;;2.30;;
5428;SDS011;2737;52.386;9.980;2024-01-15T08:41:29;6.40;;;1.70;;
5428;SDS011;2737;52.386;9.980;2024-01-15T08:43:58;7.60;;;3.90;;
5428;SDS011;2737;52.386;9.980;2024-01-15T08:46:25;6.73;;;2.10;;
5428;SDS011;2737;52.386;9.980;2024-01-15T08:48:52;11.60;;;2.60;;
5428;SDS011;2737;52.386;9.980;2024-01-15T08:51:19;5.30;;;2.30;;
5428;SDS011;2737;52.386;9.980;2024-01-15T08:53:46;10.00;;;1.97;;
5428;SDS011;2737;52.386;9.980;2024-01-15T08:56:13;4.43;;;2.60;;
5428;SDS011;2737;52.386;9.980;2024-01-15T08:58:40;7.47;;;1.83;;
5428;SDS011;2737;52.386;9.980;2024-01-15T09:01:09;5.97;;;1.70;;
5428;SDS011;2737;52.386;9.980;2024-01-15T09:03:36;3.27;;;2.13;;
5428;SDS011;2737;52.386;9.980;2024-01-15T09:06:03;4.33;;;1.80;;
5428;SDS011;2737;52.386;9.980;2024-01-15T09:08:30;8.87;;;2.10;;
5428;SDS011;2737;52.386;9.980;2024-01-15T09:10:57;7.90;;;1.47;;
5428;SDS011;2737;52.386;9.980;2024-01-15T09:13:27;12.17;;;2.03;;
5428;SDS011;2737;52.386;9.980;2024-01-15T09:15:54;6.60;;;1.97;;
5428;SDS011;2737;52.386;9.980;2024-01-15T09:18:22;3.00;;;1.40;;
5428;SDS011;2737;52.386;9.980;2024-01-15T09:20:49;7.97;;;2.00;;
5428;SDS011;2737;52.386;9.980;2024-01-15T09:23:16;5.03;;;1.90;;
5428;SDS011;2737;52.386;9.980;2024-01-15T09:25:43;9.83;;;2.13;;
5428;SDS011;2737;52.386;9.980;2024-01-15T09:28:10;11.53;;;1.70;;
5428;SDS011;2737;52.386;9.980;2024-01-15T09:30:37;14.43;;;2.30;;
5428;SDS011;2737;52.386;9.980;2024-01-15T09:33:04;4.93;;;1.87;;
5428;SDS011;2737;52.386;9.980;2024-01-15T09:35:33;10.93;;;2.20;;
5428;SDS011;2737;52.386;9.980;2024-01-15T09:38:00;7.73;;;2.47;;
5428;SDS011;2737;52.386;9.980;2024-01-15T09:40:27;7.73;;;2.60;;
5428;SDS011;2737;52.386;9.980;2024-01-15T09:42:58;10.47;;;2.40;;
5428;SDS011;2737;52.386;9.980;2024-01-15T09:45:25;6.30;;;1.70;;
5428;SDS011;2737;52.386;9.980;2024-01-15T09:47:52;5.07;;;2.00;;
5428;SDS011;2737;52.386;9.980;2024-01-15T09:50:20;9.57;;;2.07;;
5428;SDS011;2737;52.386;9.980;2024-01-15T09:52:48;10.93;;;1.90;;
5428;SDS011;2737;52.386;9.980;2024-01-15T09:55:17;10.37;;;2.87;;
5428;SDS011;2737;52.386;9.980;2024-01-15T09:57:44;5.97;;;1.77;;
5428;SDS011;2737;52.386;9.980;2024-01-15T10:00:12;10.33;;;2.20;;
5428;SDS011;2737;52.386;9.980;2024-01-15T10:02:40;16.23;;;1.97;;
5428;SDS011;2737;52.386;9.980;2024-01-15T10:05:08;10.27;;;1.70;;
5428;SDS011;2737;52.386;9.980;2024-01-15T10:07:35;8.23;;;2.00;;
5428;SDS011;2737;52.386;9.980;2024-01-15T10:10:05;6.23;;;1.90;;
5428;SDS011;2737;52.386;9.980;2024-01-15T10:12:33;7.00;;;1.67;;
5428;SDS011;2737;52.386;9.980;2024-01-15T10:15:01;8.50;;;2.23;;
5428;SDS011;2737;52.386;9.980;2024-01-15T10:17:29;6.93;;;2.20;;
5428;SDS011;2737;52.386;9.980;2024-01-15T10:19:57;3.70;;;1.83;;
5428;SDS011;2737;52.386;9.980;2024-01-15T10:22:24;5.93;;;2.70;;
5428;SDS011;2737;52.386;9.980;2024-01-15T10:24:52;4.43;;;1.57;;
5428;SDS011;2737;52.386;9.980;2024-01-15T10:27:20;6.90;;;2.10;;
5428;SDS011;2737;52.386;9.980;2024-01-15T10:29:47;4.67;;;1.80;;
5428;SDS011;2737;52.386;9.980;2024-01-15T10:32:14;3.67;;;1.60;;
5428;SDS011;2737;52.386;9.980;2024-01-15T10:34:41;3.40;;;1.30;;
5428;SDS011;2737;52.386;9.980;2024-01-15T10:37:09;3.20;;;1.30;;
5428;SDS011;2737;52.386;9.980;2024-01-15T10:39:36;4.33;;;1.60;;
5428;SDS011;2737;52.386;9.980;2024-01-15T10:42:04;5.90;;;1.60;;
5428;SDS011;2737;52.386;9.980;2024-01-15T10:44:33;11.77;;;2.20;;
5428;SDS011;2737;52.386;9.980;2024-01-15T10:47:01;9.73;;;2.50;;
5428;SDS011;2737;52.386;9.980;2024-01-15T10:49:28;3.83;;;2.00;;
5428;SDS011;2737;52.386;9.980;2024-01-15T10:51:56;2.37;;;1.80;;
5428;SDS011;2737;52.386;9.980;2024-01-15T10:54:23;11.37;;;3.57;;
5428;SDS011;2737;52.386;9.980;2024-01-15T10:56:50;5.17;;;1.70;;
5428;SDS011;2737;52.386;9.980;2024-01-15T10:59:19;2.40;;;1.57;;
5428;SDS011;2737;52.386;9.980;2024-01-15T11:01:49;4.17;;;1.90;;
5428;SDS011;2737;52.386;9.980;2024-01-15T11:04:18;2.37;;;1.50;;
5428;SDS011;2737;52.386;9.980;2024-01-15T11:06:47;6.90;;;2.70;;
5428;SDS011;2737;52.386;9.980;2024-01-15T11:09:18;8.53;;;1.50;;
5428;SDS011;2737;52.386;9.980;2024-01-15T11:11:46;3.57;;;1.70;;
5428;SDS011;2737;52.386;9.980;2024-01-15T11:17:06;6.50;;;1.93;;
5428;SDS011;2737;52.386;9.980;2024-01-15T11:19:37;7.00;;;1.40;;
5428;SDS011;2737;52.386;9.980;2024-01-15T11:22:08;3.67;;;1.30;;
5428;SDS011;2737;52.386;9.980;2024-01-15T11:24:37;5.53;;;1.80;;
5428;SDS011;2737;52.386;9.980;2024-01-15T11:27:04;4.17;;;1.37;;
5428;SDS011;2737;52.386;9.980;2024-01-15T11:29:32;4.50;;;1.23;;
5428;SDS011;2737;52.386;9.980;2024-01-15T11:32:01;4.47;;;1.93;;
5428;SDS011;2737;52.386;9.980;2024-01-15T11:34:51;3.93;;;1.13;;
5428;SDS011;2737;52.386;9.980;2024-01-15T11:37:23;15.63;;;2.10;;
5428;SDS011;2737;52.386;9.980;2024-01-15T11:39:54;7.13;;;1.30;;
5428;SDS011;2737;52.386;9.980;2024-01-15T11:42:22;6.40;;;1.30;;
5428;SDS011;2737;52.386;9.980;2024-01-15T11:44:50;4.73;;;1.30;;
5428;SDS011;2737;52.386;9.980;2024-01-15T11:47:22;9.63;;;1.57;;
5428;SDS011;2737;52.386;9.980;2024-01-15T11:50:12;6.43;;;1.93;;
5428;SDS011;2737;52.386;9.980;2024-01-15T11:52:40;9.17;;;1.33;;
5428;SDS011;2737;52.386;9.980;2024-01-15T11:55:18;6.10;;;1.63;;
5428;SDS011;2737;52.386;9.980;2024-01-15T11:57:54;9.77;;;1.50;;
5428;SDS011;2737;52.386;9.980;2024-01-15T12:00:23;5.33;;;1.50;;
5428;SDS011;2737;52.386;9.980;2024-01-15T12:02:50;6.03;;;1.70;;
5428;SDS011;2737;52.386;9.980;2024-01-15T12:05:19;7.53;;;1.27;;
5428;SDS011;2737;52.386;9.980;2024-01-15T12:07:48;4.17;;;1.50;;
5428;SDS011;2737;52.386;9.980;2024-01-15T12:10:16;5.87;;;1.60;;
5428;SDS011;2737;52.386;9.980;2024-01-15T12:15:31;4.63;;;1.53;;
5428;SDS011;2737;52.386;9.980;2024-01-15T12:17:59;8.37;;;2.20;;
5428;SDS011;2737;52.386;9.980;2024-01-15T12:20:29;9.23;;;1.57;;
5428;SDS011;2737;52.386;9.980;2024-01-15T12:22:57;6.37;;;1.70;;
5428;SDS011;2737;52.386;9.980;2024-01-15T12:25:24;5.70;;;1.40;;
5428;SDS011;2737;52.386;9.980;2024-01-15T12:27:52;4.77;;;2.03;;
5428;SDS011;2737;52.386;9.980;2024-01-15T12:30:20;11.10;;;1.53;;
5428;SDS011;2737;52.386;9.980;2024-01-15T12:32:47;8.33;;;1.57;;
5428;SDS011;2737;52.386;9.980;2024-01-15T12:35:14;10.47;;;1.83;;
5428;SDS011;2737;52.386;9.980;2024-01-15T12:37:43;4.90;;;1.20;;
5428;SDS011;2737;52.386;9.980;2024-01-15T12:40:11;6.40;;;1.23;;
5428;SDS011;2737;52.386;9.980;2024-01-15T12:42:40;7.70;;;1.30;;
5428;SDS011;2737;52.386;9.980;2024-01-15T12:45:08;7.27;;;1.90;;
5428;SDS011;2737;52.386;9.980;2024-01-15T12:47:35;6.50;;;1.33;;
5428;SDS011;2737;52.386;9.980;2024-01-15T12:50:06;5.80;;;1.20;;
5428;SDS011;2737;52.386;9.980;2024-01-15T12:52:33;9.43;;;1.40;;
5428;SDS011;2737;52.386;9.980;2024-01-15T12:55:01;10.43;;;1.83;;
5428;SDS011;2737;52.386;9.980;2024-01-15T12:57:29;6.63;;;1.27;;
5428;SDS011;2737;52.386;9.980;2024-01-15T12:59:56;5.60;;;1.17;;
5428;SDS011;2737;52.386;9.980;2024-01-15T13:02:23;5.43;;;1.73;;
5428;SDS011;2737;52.386;9.980;2024-01-15T13:04:50;2.33;;;1.30;;
5428;SDS011;2737;52.386;9.980;2024-01-15T13:07:19;5.47;;;1.53;;
5428;SDS011;2737;52.386;9.980;2024-01-15T13:09:46;10.43;;;1.40;;
5428;SDS011;2737;52.386;9.980;2024-01-15T13:12:18;5.60;;;1.63;;
5428;SDS011;2737;52.386;9.980;2024-01-15T13:14:45;8.10;;;1.67;;
5428;SDS011;2737;52.386;9.980;2024-01-15T13:17:13;3.37;;;1.40;;
5428;SDS011;2737;52.386;9.980;2024-01-15T13:19:40;14.87;;;1.57;;
5428;SDS011;2737;52.386;9.980;2024-01-15T13:22:07;12.83;;;1.67;;
5428;SDS011;2737;52.386;9.980;2024-01-15T13:24:34;3.50;;;1.30;;
5428;SDS011;2737;52.386;9.980;2024-01-15T13:27:01;3.53;;;1.40;;
5428;SDS011;2737;52.386;9.980;2024-01-15T13:29:31;9.27;;;1.50;;
5428;SDS011;2737;52.386;9.980;2024-01-15T13:32:00;3.73;;;1.40;;
5428;SDS011;2737;52.386;9.980;2024-01-15T13:34:28;8.87;;;1.50;;
5428;SDS011;2737;52.386;9.980;2024-01-15T13:36:55;7.90;;;1.77;;
5428;SDS011;2737;52.386;9.980;2024-01-15T13:39:22;9.97;;;1.40;;
5428;SDS011;2737;52.386;9.980;2024-01-15T13:41:49;14.70;;;1.90;;
5428;SDS011;2737;52.386;9.980;2024-01-15T13:44:16;16.47;;;2.20;;
5428;SDS011;2737;52.386;9.980;2024-01-15T13:46:45;4.13;;;2.07;;
5428;SDS011;2737;52.386;9.980;2024-01-15T13:49:12;3.07;;;1.10;;
5428;SDS011;2737;52.386;9.980;2024-01-15T13:51:39;2.40;;;1.27;;
5428;SDS011;2737;52.386;9.980;2024-01-15T13:54:06;6.53;;;1.73;;
5428;SDS011;2737;52.386;9.980;2024-01-15T13:56:34;5.60;;;1.70;;
5428;SDS011;2737;52.386;9.980;2024-01-15T13:59:01;4.63;;;1.07;;
5428;SDS011;2737;52.386;9.980;2024-01-15T14:01:29;4.83;;;1.43;;
5428;SDS011;2737;52.386;9.980;2024-01-15T14:03:57;3.00;;;1.00;;
5428;SDS011;2737;52.386;9.980;2024-01-15T14:06:24;5.97;;;1.87;;
5428;SDS011;2737;52.386;9.980;2024-01-15T14:08:51;4.10;;;1.70;;
5428;SDS011;2737;52.386;9.980;2024-01-15T14:11:18;4.57;;;1.50;;
5428;SDS011;2737;52.386;9.980;2024-01-15T14:13:45;8.80;;;1.77;;
5428;SDS011;2737;52.386;9.980;2024-01-15T14:16:13;4.10;;;1.20;;
5428;SDS011;2737;52.386;9.980;2024-01-15T14:18:40;8.67;;;2.37;;
5428;SDS011;2737;52.386;9.980;2024-01-15T14:21:08;3.37;;;1.60;;
5428;SDS011;2737;52.386;9.980;2024-01-15T14:23:36;3.90;;;2.00;;
5428;SDS011;2737;52.386;9.980;2024-01-15T14:26:03;4.80;;;1.80;;
5428;SDS011;2737;52.386;9.980;2024-01-15T14:28:30;6.23;;;1.53;;
5428;SDS011;2737;52.386;9.980;2024-01-15T14:30:57;5.20;;;2.00;;
5428;SDS011;2737;52.386;9.980;2024-01-15T14:33:25;9.63;;;4.10;;
5428;SDS011;2737;52.386;9.980;2024-01-15T14:35:52;13.90;;;3.93;;
5428;SDS011;2737;52.386;9.980;2024-01-15T14:38:21;9.10;;;2.77;;
5428;SDS011;2737;52.386;9.980;2024-01-15T14:40:48;10.23;;;2.30;;
5428;SDS011;2737;52.386;9.980;2024-01-15T14:43:15;10.30;;;2.97;;
5428;SDS011;2737;52.386;9.980;2024-01-15T14:45:42;8.33;;;2.20;;
5428;SDS011;2737;52.386;9.980;2024-01-15T14:48:10;4.30;;;1.93;;
5428;SDS011;2737;52.386;9.980;2024-01-15T14:50:38;14.07;;;1.87;;
5428;SDS011;2737;52.386;9.980;2024-01-15T14:53:05;7.90;;;1.67;;
5428;SDS011;2737;52.386;9.980;2024-01-15T14:55:34;7.93;;;1.93;;
5428;SDS011;2737;52.386;9.980;2024-01-15T14:58:01;2.70;;;1.73;;
5428;SDS011;2737;52.386;9.980;2024-01-15T15:00:28;16.73;;;2.93;;
5428;SDS011;2737;52.386;9.980;2024-01-15T15:02:55;4.93;;;3.07;;
5428;SDS011;2737;52.386;9.980;2024-01-15T15:05:22;6.30;;;2.23;;
5428;SDS011;2737;52.386;9.980;2024-01-15T15:07:49;7.40;;;2.20;;
5428;SDS011;2737;52.386;9.980;2024-01-15T15:10:16;3.43;;;1.97;;
5428;SDS011;2737;52.386;9.980;2024-01-15T15:12:45;8.20;;;2.20;;
5428;SDS011;2737;52.386;9.980;2024-01-15T15:15:12;6.07;;;1.83;;
5428;SDS011;2737;52.386;9.980;2024-01-15T15:17:39;15.53;;;2.30;;
5428;SDS011;2737;52.386;9.980;2024-01-15T15:20:06;6.23;;;1.97;;